createdAt,value
2023-01-15T00:01:42.180Z,91.00
2023-01-15T00:04:09.291Z,91.01
2023-01-15T00:06:38.387Z,91.38
2023-01-15T00:09:06.014Z,91.63
2023-01-15T00:11:32.869Z,91.68
2023-01-15T00:14:00.259Z,91.21
2023-01-15T00:16:28.093Z,91.27
2023-01-15T00:18:59.412Z,91.34
2023-01-15T00:21:27.286Z,91.39
2023-01-15T00:24:13.429Z,91.65
2023-01-15T00:26:59.671Z,91.92
2023-01-15T00:29:26.547Z,91.94
2023-01-15T00:31:58.531Z,92.32
2023-01-15T00:34:26.177Z,92.53
2023-01-15T00:36:53.059Z,92.39
2023-01-15T00:39:19.858Z,92.20
2023-01-15T00:41:47.135Z,92.82
2023-01-15T00:44:14.375Z,93.04
2023-01-15T00:46:41.464Z,93.37
2023-01-15T00:49:08.523Z,93.24
2023-01-15T00:51:35.567Z,93.05
2023-01-15T00:54:02.491Z,93.23
2023-01-15T00:56:29.732Z,93.63
2023-01-15T00:58:56.689Z,93.95
2023-01-15T01:01:23.750Z,93.95
2023-01-15T01:03:54.914Z,93.68
2023-01-15T01:06:23.432Z,93.68
2023-01-15T01:08:50.386Z,94.00
2023-01-15T01:11:19.976Z,94.12
2023-01-15T01:13:47.133Z,93.99
2023-01-15T01:16:37.744Z,93.42
2023-01-15T01:19:07.424Z,93.59
2023-01-15T01:21:34.277Z,93.84
2023-01-15T01:24:01.241Z,93.91
2023-01-15T01:26:29.484Z,93.72
2023-01-15T01:28:56.602Z,93.44
2023-01-15T01:31:23.747Z,93.68
2023-01-15T01:33:51.497Z,93.75
2023-01-15T01:36:18.819Z,93.88
2023-01-15T01:38:49.944Z,93.83
2023-01-15T01:41:17.917Z,93.28
2023-01-15T01:44:05.823Z,93.54
2023-01-15T01:46:34.572Z,93.62
2023-01-15T01:49:08.469Z,93.44
2023-01-15T01:52:08.713Z,93.15
2023-01-15T01:54:36.549Z,93.34
2023-01-15T01:57:03.536Z,93.58
2023-01-15T01:59:30.384Z,93.75
2023-01-15T02:01:57.359Z,93.78
2023-01-15T02:04:24.412Z,93.08
2023-01-15T02:06:51.313Z,93.16
2023-01-15T02:09:18.607Z,93.37
2023-01-15T02:11:45.503Z,93.43
2023-01-15T02:14:31.583Z,93.86
2023-01-15T02:17:16.630Z,93.73
2023-01-15T02:20:02.069Z,93.79
2023-01-15T02:23:07.308Z,93.79
2023-01-15T02:25:52.866Z,93.81
2023-01-15T02:28:29.104Z,93.68
2023-01-15T02:31:04.951Z,93.18
2023-01-15T02:33:37.834Z,92.94
2023-01-15T02:36:06.739Z,93.29
2023-01-15T02:38:36.829Z,93.23
2023-01-15T02:41:05.213Z,93.42
2023-01-15T02:43:36.648Z,92.79
2023-01-15T02:46:04.135Z,92.37
2023-01-15T02:48:35.258Z,92.53
2023-01-15T02:51:24.785Z,92.54
2023-01-15T02:53:55.370Z,92.77
2023-01-15T02:56:27.507Z,92.34
2023-01-15T02:58:57.292Z,92.07
2023-01-15T03:01:31.620Z,92.07
2023-01-15T03:04:12.723Z,91.92
2023-01-15T03:06:45.496Z,92.42
2023-01-15T03:09:13.233Z,92.30
2023-01-15T03:11:48.035Z,92.16
2023-01-15T03:14:24.427Z,92.23
2023-01-15T03:16:57.345Z,92.56
2023-01-15T03:20:01.320Z,92.96
2023-01-15T03:22:31.080Z,92.59
2023-01-15T03:25:02.878Z,92.33
2023-01-15T03:27:31.848Z,92.60
2023-01-15T03:30:04.528Z,92.63
2023-01-15T03:32:31.540Z,92.81
2023-01-15T03:34:59.144Z,92.33
2023-01-15T03:37:28.595Z,92.44
2023-01-15T03:39:56.540Z,92.79
2023-01-15T03:43:10.589Z,92.78
2023-01-15T03:45:37.766Z,92.76
2023-01-15T03:48:36.219Z,92.50
2023-01-15T03:51:12.255Z,92.41
2023-01-15T03:53:55.132Z,92.71
2023-01-15T03:56:29.135Z,92.85
2023-01-15T03:58:59.405Z,92.45
2023-01-15T04:01:36.332Z,92.36
2023-01-15T04:04:04.258Z,92.45
2023-01-15T04:06:32.863Z,92.77
2023-01-15T04:08:59.855Z,92.75
2023-01-15T04:11:28.865Z,92.44
2023-01-15T04:14:01.159Z,92.42
2023-01-15T04:16:37.209Z,92.52
2023-01-15T04:19:04.097Z,92.58
2023-01-15T04:21:33.703Z,92.70
2023-01-15T04:24:00.525Z,92.53
2023-01-15T04:26:27.499Z,92.24
2023-01-15T04:28:55.034Z,92.61
2023-01-15T04:31:21.982Z,92.93
2023-01-15T04:33:49.026Z,92.88
2023-01-15T04:36:15.972Z,92.65
2023-01-15T04:38:42.822Z,92.05
2023-01-15T04:41:28.420Z,92.15
2023-01-15T04:44:07.408Z,92.50
2023-01-15T04:46:36.621Z,92.42
2023-01-15T04:49:05.446Z,92.23
2023-01-15T04:51:32.318Z,91.78
2023-01-15T04:54:02.172Z,92.08
2023-01-15T04:56:29.019Z,92.16
2023-01-15T04:58:55.882Z,92.07
2023-01-15T05:01:22.889Z,91.77
2023-01-15T05:03:49.941Z,91.73
2023-01-15T05:06:18.540Z,92.06
2023-01-15T05:08:45.793Z,92.43
2023-01-15T05:11:13.168Z,92.31
2023-01-15T05:13:40.047Z,92.27
2023-01-15T05:16:08.325Z,91.90
2023-01-15T05:18:35.246Z,91.53
2023-01-15T05:21:02.111Z,92.03
2023-01-15T05:23:28.952Z,92.12
2023-01-15T05:25:55.674Z,92.38
2023-01-15T05:28:22.535Z,91.78
2023-01-15T05:30:49.449Z,91.63
2023-01-15T05:33:16.344Z,91.76
2023-01-15T05:35:43.186Z,91.75
2023-01-15T05:38:09.997Z,91.88
2023-01-15T05:40:36.811Z,91.91
2023-01-15T05:43:03.691Z,92.11
2023-01-15T05:45:30.520Z,92.16
2023-01-15T05:47:57.386Z,92.63
2023-01-15T05:50:24.187Z,92.50
2023-01-15T05:52:51.122Z,92.28
2023-01-15T05:55:17.942Z,92.55
2023-01-15T05:57:44.831Z,92.45
2023-01-15T06:00:12.418Z,92.46
2023-01-15T06:02:41.884Z,92.54
2023-01-15T06:05:09.091Z,92.44
2023-01-15T06:07:35.973Z,92.39
2023-01-15T06:10:02.817Z,92.42
2023-01-15T06:12:29.615Z,92.74
2023-01-15T06:14:56.426Z,92.54
2023-01-15T06:17:23.344Z,92.37
2023-01-15T06:19:50.216Z,92.34
2023-01-15T06:22:18.777Z,92.34
2023-01-15T06:24:45.674Z,92.45
2023-01-15T06:27:12.661Z,92.36
2023-01-15T06:29:39.544Z,92.16
2023-01-15T06:32:06.561Z,92.01
2023-01-15T06:34:36.429Z,92.06
2023-01-15T06:37:03.318Z,92.43
2023-01-15T06:39:30.070Z,92.82
2023-01-15T06:42:15.550Z,92.67
2023-01-15T06:45:00.870Z,92.29
2023-01-15T06:47:27.773Z,92.60
2023-01-15T06:49:56.172Z,92.46
2023-01-15T06:52:24.025Z,92.33
2023-01-15T06:54:51.115Z,92.13
2023-01-15T06:57:19.053Z,92.49
2023-01-15T06:59:46.552Z,92.56
2023-01-15T07:02:13.471Z,92.65
2023-01-15T07:04:40.413Z,91.92
2023-01-15T07:07:07.324Z,91.18
2023-01-15T07:09:34.368Z,91.63
2023-01-15T07:12:01.271Z,91.80
2023-01-15T07:14:32.168Z,91.73
2023-01-15T07:16:59.343Z,91.74
2023-01-15T07:19:27.319Z,91.14
2023-01-15T07:21:54.514Z,91.12
2023-01-15T07:24:21.821Z,91.15
2023-01-15T07:26:48.747Z,91.31
2023-01-15T07:29:15.870Z,91.07
2023-01-15T07:31:42.938Z,91.03
2023-01-15T07:34:09.928Z,90.85
2023-01-15T07:36:37.439Z,90.85
2023-01-15T07:39:08.082Z,90.69
2023-01-15T07:41:53.678Z,90.52
2023-01-15T07:44:39.948Z,89.96
2023-01-15T07:47:41.812Z,90.15
2023-01-15T07:50:11.612Z,90.36
2023-01-15T07:52:38.646Z,90.60
2023-01-15T07:55:06.092Z,90.32
2023-01-15T07:57:33.127Z,90.24
2023-01-15T08:00:00.048Z,90.33
2023-01-15T08:02:27.498Z,90.22
2023-01-15T08:04:54.613Z,90.43
2023-01-15T08:07:21.634Z,90.26
2023-01-15T08:09:48.531Z,89.96
2023-01-15T08:12:34.117Z,89.98
2023-01-15T08:15:13.060Z,89.90
2023-01-15T08:17:41.285Z,89.97
2023-01-15T08:20:11.406Z,89.63
2023-01-15T08:22:38.903Z,89.27
2023-01-15T08:25:09.308Z,89.24
2023-01-15T08:27:37.334Z,89.09
2023-01-15T08:30:05.695Z,89.07
2023-01-15T08:32:32.770Z,88.83
2023-01-15T08:34:59.695Z,88.70
2023-01-15T08:37:26.689Z,88.75
2023-01-15T08:39:53.681Z,89.07
2023-01-15T08:42:21.260Z,89.22
2023-01-15T08:44:48.570Z,88.99
2023-01-15T08:47:16.227Z,88.79
2023-01-15T08:49:45.044Z,88.58
2023-01-15T08:52:12.036Z,88.46
2023-01-15T08:54:40.832Z,88.70
2023-01-15T08:57:09.789Z,88.63
2023-01-15T08:59:36.830Z,88.79
2023-01-15T09:02:03.841Z,88.77
2023-01-15T09:04:31.007Z,89.09
2023-01-15T09:06:57.947Z,88.86
2023-01-15T09:09:24.981Z,88.67
2023-01-15T09:11:51.960Z,88.53
2023-01-15T09:14:59.678Z,88.49
2023-01-15T09:17:05.892Z,88.69
2023-01-15T09:19:32.982Z,88.63
2023-01-15T09:21:59.806Z,88.55
2023-01-15T09:24:26.811Z,88.27
2023-01-15T09:26:53.976Z,87.95
2023-01-15T09:29:20.977Z,88.00
2023-01-15T09:31:48.132Z,88.08
2023-01-15T09:34:15.569Z,87.90
2023-01-15T09:36:43.084Z,87.69
2023-01-15T09:39:10.658Z,87.94
2023-01-15T09:42:05.316Z,88.04
2023-01-15T09:44:53.864Z,88.22
2023-01-15T09:47:32.464Z,88.19
2023-01-15T09:50:17.760Z,88.11
2023-01-15T09:52:50.921Z,88.35
2023-01-15T09:55:31.770Z,88.10
2023-01-15T09:58:00.426Z,88.29
2023-01-15T10:00:38.071Z,87.87
2023-01-15T10:03:25.621Z,87.64
2023-01-15T10:05:55.710Z,87.31
2023-01-15T10:08:33.937Z,87.39
2023-01-15T10:11:04.539Z,87.14
2023-01-15T10:13:46.148Z,86.87
2023-01-15T10:16:14.475Z,86.95
2023-01-15T10:18:43.492Z,87.27
2023-01-15T10:21:44.683Z,87.23
2023-01-15T10:24:26.827Z,87.33
2023-01-15T10:26:57.882Z,86.92
2023-01-15T10:29:40.777Z,86.98
2023-01-15T10:32:13.795Z,86.98
2023-01-15T10:34:59.898Z,86.84
2023-01-15T10:37:43.222Z,86.80
2023-01-15T10:41:04.230Z,86.85
2023-01-15T10:43:33.945Z,87.28
2023-01-15T10:46:01.826Z,87.30
2023-01-15T10:48:41.702Z,87.61
2023-01-15T10:51:23.074Z,86.94
2023-01-15T10:54:06.350Z,86.82
2023-01-15T10:56:35.923Z,86.92
2023-01-15T10:59:11.540Z,86.97
2023-01-15T11:01:38.912Z,86.73
2023-01-15T11:04:06.836Z,86.45
2023-01-15T11:06:35.139Z,86.51
2023-01-15T11:09:11.152Z,86.79
2023-01-15T11:11:59.352Z,87.15
2023-01-15T11:15:14.081Z,87.30
2023-01-15T11:18:02.660Z,86.94
2023-01-15T11:20:50.685Z,86.95
2023-01-15T11:23:21.169Z,86.93
2023-01-15T11:26:08.310Z,86.88
2023-01-15T11:28:44.480Z,87.00
2023-01-15T11:31:11.951Z,87.04
2023-01-15T11:33:39.156Z,87.26
2023-01-15T11:37:10.138Z,87.44
2023-01-15T11:39:37.202Z,87.35
2023-01-15T11:42:24.360Z,86.93
2023-01-15T11:45:15.699Z,86.60
2023-01-15T11:48:21.436Z,86.71
2023-01-15T11:51:10.925Z,86.89
2023-01-15T11:53:44.428Z,86.95
2023-01-15T11:56:11.891Z,87.02
2023-01-15T11:58:46.302Z,87.18
2023-01-15T12:01:34.894Z,87.36
2023-01-15T12:04:19.141Z,87.45
2023-01-15T12:06:46.180Z,87.58
2023-01-15T12:09:48.630Z,87.62
2023-01-15T12:12:21.901Z,87.39
2023-01-15T12:15:06.222Z,88.08
2023-01-15T12:18:05.179Z,88.59
2023-01-15T12:20:57.146Z,88.61
2023-01-15T12:23:42.936Z,88.90
2023-01-15T12:26:20.645Z,89.08
2023-01-15T12:28:56.675Z,89.20
2023-01-15T12:31:36.468Z,89.31
2023-01-15T12:34:08.563Z,89.43
2023-01-15T12:36:49.293Z,89.54
2023-01-15T12:39:25.110Z,89.77
2023-01-15T12:42:13.166Z,89.85
2023-01-15T12:45:04.907Z,89.79
2023-01-15T12:47:43.599Z,89.81
2023-01-15T12:50:32.011Z,89.91
2023-01-15T12:53:25.505Z,90.23
2023-01-15T12:56:02.475Z,90.57
2023-01-15T12:58:52.571Z,90.80
2023-01-15T13:01:22.617Z,90.88
2023-01-15T13:04:11.059Z,90.59
2023-01-15T13:06:39.496Z,90.53
2023-01-15T13:09:11.377Z,90.62
2023-01-15T13:11:38.237Z,91.12
2023-01-15T13:14:12.403Z,91.31
2023-01-15T13:17:00.052Z,91.13
2023-01-15T13:19:32.698Z,91.45
2023-01-15T13:22:02.328Z,91.94
2023-01-15T13:24:47.497Z,92.27
2023-01-15T13:27:48.335Z,92.64
2023-01-15T13:30:24.324Z,92.41
2023-01-15T13:32:56.715Z,92.65
2023-01-15T13:35:34.327Z,92.78
2023-01-15T13:38:02.937Z,93.45
2023-01-15T13:40:32.966Z,93.52
2023-01-15T13:42:59.877Z,93.35
2023-01-15T13:45:37.301Z,93.80
2023-01-15T13:48:07.451Z,94.04
2023-01-15T13:50:41.863Z,94.40
2023-01-15T13:53:30.936Z,94.54
2023-01-15T13:56:31.457Z,94.68
2023-01-15T13:59:00.079Z,95.07
2023-01-15T14:01:36.521Z,95.61
2023-01-15T14:04:09.639Z,95.17
2023-01-15T14:07:34.583Z,95.35
2023-01-15T14:10:21.835Z,95.89
2023-01-15T14:12:48.676Z,95.92
2023-01-15T14:15:27.726Z,95.86
2023-01-15T14:18:19.587Z,95.65
2023-01-15T14:20:52.756Z,95.73
2023-01-15T14:23:38.464Z,95.81
2023-01-15T14:26:17.472Z,95.71
2023-01-15T14:29:05.803Z,95.54
2023-01-15T14:32:11.400Z,95.77
2023-01-15T14:34:38.350Z,96.00
2023-01-15T14:37:08.273Z,96.15
2023-01-15T14:39:45.233Z,95.77
2023-01-15T14:42:40.336Z,95.71
2023-01-15T14:45:08.419Z,96.10
2023-01-15T14:47:36.518Z,96.30
2023-01-15T14:50:25.681Z,96.33
2023-01-15T14:52:54.149Z,96.19
2023-01-15T14:55:21.239Z,96.77
2023-01-15T14:57:57.266Z,96.83
2023-01-15T15:00:24.536Z,96.77
2023-01-15T15:02:51.468Z,96.80
2023-01-15T15:05:19.414Z,97.32
2023-01-15T15:07:53.130Z,97.50
2023-01-15T15:10:33.049Z,97.42
2023-01-15T15:13:27.967Z,96.87
2023-01-15T15:16:16.844Z,96.50
2023-01-15T15:19:02.021Z,97.15
2023-01-15T15:21:31.709Z,97.29
2023-01-15T15:24:26.223Z,97.08
2023-01-15T15:26:53.011Z,96.90
2023-01-15T15:29:20.485Z,97.13
2023-01-15T15:31:57.036Z,97.33
2023-01-15T15:34:28.919Z,97.33
2023-01-15T15:37:01.667Z,97.19
2023-01-15T15:39:34.859Z,97.30
2023-01-15T15:42:20.575Z,97.38
2023-01-15T15:45:11.380Z,97.43
2023-01-15T15:47:58.602Z,97.34
2023-01-15T15:50:27.490Z,97.71
2023-01-15T15:52:54.442Z,97.95
2023-01-15T15:55:21.662Z,97.98
2023-01-15T15:57:51.305Z,97.73
2023-01-15T16:00:30.463Z,98.00
2023-01-15T16:02:57.342Z,98.42
2023-01-15T16:05:31.529Z,98.15
2023-01-15T16:08:28.539Z,97.51
2023-01-15T16:11:02.954Z,97.20
2023-01-15T16:13:54.168Z,96.93
2023-01-15T16:16:21.126Z,96.80
2023-01-15T16:18:58.500Z,96.53
2023-01-15T16:21:33.758Z,96.51
2023-01-15T16:24:05.165Z,96.69
2023-01-15T16:26:40.638Z,96.78
2023-01-15T16:29:19.657Z,96.49
2023-01-15T16:31:46.481Z,96.26
2023-01-15T16:34:18.875Z,96.25
2023-01-15T16:36:46.027Z,96.37
2023-01-15T16:39:26.873Z,96.43
2023-01-15T16:41:57.878Z,96.15
2023-01-15T16:44:51.998Z,96.19
2023-01-15T16:47:29.105Z,96.36
2023-01-15T16:50:24.141Z,96.39
2023-01-15T16:52:56.047Z,96.15
2023-01-15T16:55:42.303Z,96.32
2023-01-15T16:58:12.225Z,96.86
2023-01-15T17:00:43.860Z,96.71
2023-01-15T17:03:15.141Z,96.57
2023-01-15T17:05:41.985Z,96.66
2023-01-15T17:08:19.648Z,96.98
2023-01-15T17:10:56.888Z,96.81
2023-01-15T17:13:29.176Z,96.58
2023-01-15T17:16:18.913Z,97.05
2023-01-15T17:18:46.521Z,97.12
2023-01-15T17:21:23.505Z,96.93
2023-01-15T17:23:50.445Z,96.91
2023-01-15T17:26:22.028Z,96.96
2023-01-15T17:28:49.363Z,97.34
2023-01-15T17:31:30.207Z,97.12
2023-01-15T17:33:58.365Z,97.04
2023-01-15T17:36:25.514Z,97.36
2023-01-15T17:38:52.307Z,97.72
2023-01-15T17:41:19.901Z,97.56
2023-01-15T17:43:47.020Z,97.44
2023-01-15T17:46:14.254Z,97.55
2023-01-15T17:48:41.321Z,97.72
2023-01-15T17:51:11.628Z,97.55
2023-01-15T17:53:38.692Z,97.35
2023-01-15T17:56:24.964Z,97.78
2023-01-15T17:59:10.685Z,98.16
2023-01-15T18:01:59.551Z,97.96
2023-01-15T18:04:47.249Z,97.58
2023-01-15T18:07:15.512Z,97.79
2023-01-15T18:09:42.412Z,98.00
2023-01-15T18:12:09.334Z,98.34
2023-01-15T18:14:36.349Z,98.02
2023-01-15T18:17:03.511Z,97.85
2023-01-15T18:19:30.860Z,98.07
2023-01-15T18:21:57.897Z,98.40
2023-01-15T18:24:24.850Z,98.59
2023-01-15T18:26:52.197Z,98.25
2023-01-15T18:29:19.857Z,98.39
2023-01-15T18:31:47.649Z,98.46
2023-01-15T18:34:14.662Z,98.59
2023-01-15T18:36:42.032Z,98.16
2023-01-15T18:39:12.669Z,97.95
2023-01-15T18:41:39.907Z,98.09
2023-01-15T18:44:29.295Z,98.11
2023-01-15T18:46:58.242Z,97.81
2023-01-15T18:49:25.422Z,97.93
2023-01-15T18:52:12.760Z,98.31
2023-01-15T18:54:39.894Z,98.44
2023-01-15T18:57:06.941Z,98.18
2023-01-15T18:59:33.988Z,97.94
2023-01-15T19:02:00.969Z,98.25
2023-01-15T19:04:27.804Z,98.81
2023-01-15T19:06:55.033Z,98.62
2023-01-15T19:09:24.544Z,98.60
2023-01-15T19:11:52.607Z,98.98
2023-01-15T19:14:39.047Z,99.23
2023-01-15T19:17:24.638Z,99.22
2023-01-15T19:19:51.444Z,98.54
2023-01-15T19:22:37.277Z,98.72
2023-01-15T19:25:04.780Z,99.16
2023-01-15T19:27:31.621Z,99.62
2023-01-15T19:30:00.445Z,99.35
2023-01-15T19:32:27.270Z,98.99
2023-01-15T19:34:54.311Z,99.30
2023-01-15T19:37:22.176Z,99.37
2023-01-15T19:39:49.212Z,99.30
2023-01-15T19:42:34.907Z,99.07
2023-01-15T19:45:20.585Z,99.16
2023-01-15T19:48:06.369Z,99.14
2023-01-15T19:50:38.335Z,98.95
2023-01-15T19:53:05.637Z,98.70
2023-01-15T19:55:32.920Z,98.81
2023-01-15T19:58:01.232Z,98.85
2023-01-15T20:00:28.565Z,98.86
2023-01-15T20:02:56.684Z,99.24
2023-01-15T20:05:24.824Z,99.69
2023-01-15T20:07:51.866Z,99.50
2023-01-15T20:10:19.975Z,99.33
2023-01-15T20:13:05.587Z,99.56
2023-01-15T20:15:32.975Z,99.94
2023-01-15T20:17:59.732Z,99.90
2023-01-15T20:20:26.959Z,99.72
2023-01-15T20:22:58.138Z,99.93
2023-01-15T20:25:29.061Z,99.90
2023-01-15T20:27:56.768Z,99.63
2023-01-15T20:30:24.203Z,99.82
2023-01-15T20:32:52.545Z,100.00
2023-01-15T20:35:22.359Z,99.96
2023-01-15T20:37:50.062Z,99.75
2023-01-15T20:40:18.475Z,99.78
2023-01-15T20:43:04.305Z,99.97
2023-01-15T20:45:31.450Z,99.97
2023-01-15T20:48:15.410Z,99.60
2023-01-15T20:51:01.030Z,99.88
2023-01-15T20:53:33.934Z,100.00
2023-01-15T20:56:04.270Z,99.92
2023-01-15T20:58:31.695Z,100.00
2023-01-15T21:01:06.511Z,100.00
2023-01-15T21:03:33.618Z,99.91
2023-01-15T21:06:01.697Z,99.68
2023-01-15T21:08:30.377Z,99.75
2023-01-15T21:10:57.293Z,99.79
2023-01-15T21:13:24.660Z,99.48
2023-01-15T21:16:04.904Z,99.00
2023-01-15T21:18:32.745Z,99.05
2023-01-15T21:20:59.596Z,99.23
2023-01-15T21:23:41.689Z,98.99
2023-01-15T21:26:36.211Z,99.01
2023-01-15T21:29:29.868Z,99.13
2023-01-15T21:32:06.259Z,98.92
2023-01-15T21:34:33.107Z,98.65
2023-01-15T21:36:59.861Z,98.90
2023-01-15T21:39:26.700Z,99.15
2023-01-15T21:42:12.200Z,98.96
2023-01-15T21:44:43.491Z,98.37
2023-01-15T21:47:15.483Z,98.51
2023-01-15T21:49:42.727Z,98.68
2023-01-15T21:52:14.685Z,98.48
2023-01-15T21:54:41.541Z,98.07
2023-01-15T21:57:10.254Z,98.30
2023-01-15T21:59:37.286Z,98.48
2023-01-15T22:02:04.853Z,98.01
2023-01-15T22:04:34.579Z,97.47
2023-01-15T22:07:01.414Z,96.55
2023-01-15T22:09:28.349Z,96.22
2023-01-15T22:11:55.148Z,96.09
2023-01-15T22:14:27.475Z,95.84
2023-01-15T22:16:55.066Z,95.59
2023-01-15T22:19:23.251Z,95.39
2023-01-15T22:21:51.171Z,95.41
2023-01-15T22:24:19.487Z,95.30
2023-01-15T22:26:54.456Z,95.31
2023-01-15T22:29:31.969Z,95.60
2023-01-15T22:31:59.398Z,95.82
2023-01-15T22:34:27.215Z,95.39
2023-01-15T22:36:54.292Z,95.55
2023-01-15T22:39:21.441Z,95.66
2023-01-15T22:42:07.153Z,95.75
2023-01-15T22:44:34.054Z,95.44
2023-01-15T22:47:02.438Z,95.11
2023-01-15T22:49:29.277Z,95.28
2023-01-15T22:51:56.124Z,95.63
2023-01-15T22:54:23.024Z,95.72
2023-01-15T22:56:49.938Z,95.54
2023-01-15T22:59:16.994Z,95.60
2023-01-15T23:01:43.955Z,95.65
2023-01-15T23:04:24.602Z,95.76
2023-01-15T23:06:52.368Z,95.80
2023-01-15T23:09:20.363Z,96.03
2023-01-15T23:11:47.214Z,96.21
2023-01-15T23:14:15.810Z,95.95
2023-01-15T23:16:43.229Z,96.40
2023-01-15T23:19:10.262Z,96.54
2023-01-15T23:21:37.185Z,96.53
2023-01-15T23:24:04.457Z,96.40
2023-01-15T23:26:32.327Z,96.57
2023-01-15T23:28:59.693Z,96.79
2023-01-15T23:31:26.835Z,96.58
2023-01-15T23:33:53.677Z,96.42
2023-01-15T23:36:20.609Z,96.73
2023-01-15T23:38:47.477Z,97.04
2023-01-15T23:41:17.492Z,97.10
2023-01-15T23:44:03.583Z,97.39
2023-01-15T23:46:33.434Z,97.63
2023-01-15T23:49:10.290Z,97.50
2023-01-15T23:51:37.240Z,97.49
2023-01-15T23:55:15.421Z,98.00
2023-01-15T23:57:42.280Z,98.09
